sensor_id;sensor_type;location;lat;lon;timestamp;temperature;humidity
7204;DHT22;3643;52.460;13.322;2024-02-21T00:01:42;7.40;99.90
7204;DHT22;3643;52.460;13.322;2024-02-21T00:04:10;7.40;99.90
7204;DHT22;3643;52.460;13.322;2024-02-21T00:06:38;7.40;99.90
7204;DHT22;3643;52.460;13.322;2024-02-21T00:09:06;7.40;99.90
7204;DHT22;3643;52.460;13.322;2024-02-21T00:11:36;7.40;99.90
7204;DHT22;3643;52.460;13.322;2024-02-21T00:14:04;7.40;99.90
7204;DHT22;3643;52.460;13.322;2024-02-21T00:16:33;7.40;99.90
7204;DHT22;3643;52.460;13.322;2024-02-21T00:19:02;7.60;99.90
7204;DHT22;3643;52.460;13.322;2024-02-21T00:21:30;7.40;99.90
7204;DHT22;3643;52.460;13.322;2024-02-21T00:23:58;7.40;99.90
7204;DHT22;3643;52.460;13.322;2024-02-21T00:26:26;7.50;99.90
7204;DHT22;3643;52.460;13.322;2024-02-21T00:28:54;7.60;99.90
7204;DHT22;3643;52.460;13.322;2024-02-21T00:31:22;7.40;99.90
7204;DHT22;3643;52.460;13.322;2024-02-21T00:33:51;7.60;99.90
7204;DHT22;3643;52.460;13.322;2024-02-21T00:36:20;7.50;99.90
7204;DHT22;3643;52.460;13.322;2024-02-21T00:38:48;7.50;99.90
7204;DHT22;3643;52.460;13.322;2024-02-21T00:41:16;7.50;99.90
7204;DHT22;3643;52.460;13.322;2024-02-21T00:43:44;7.50;99.90
7204;DHT22;3643;52.460;13.322;2024-02-21T00:46:12;7.50;99.90
7204;DHT22;3643;52.460;13.322;2024-02-21T00:48:40;7.40;99.90
7204;DHT22;3643;52.460;13.322;2024-02-21T00:51:09;7.50;99.90
7204;DHT22;3643;52.460;13.322;2024-02-21T00:53:37;7.50;99.90
7204;DHT22;3643;52.460;13.322;2024-02-21T00:56:06;7.50;99.90
7204;DHT22;3643;52.460;13.322;2024-02-21T00:58:34;7.50;99.90
7204;DHT22;3643;52.460;13.322;2024-02-21T01:01:02;7.50;99.90
7204;DHT22;3643;52.460;13.322;2024-02-21T01:03:30;7.40;99.90
7204;DHT22;3643;52.460;13.322;2024-02-21T01:05:59;7.50;99.90
7204;DHT22;3643;52.460;13.322;2024-02-21T01:08:28;7.50;99.90
7204;DHT22;3643;52.460;13.322;2024-02-21T01:10:56;7.40;99.90
7204;DHT22;3643;52.460;13.322;2024-02-21T01:13:24;7.40;99.90
7204;DHT22;3643;52.460;13.322;2024-02-21T01:15:52;7.50;99.90
7204;DHT22;3643;52.460;13.322;2024-02-21T01:18:20;7.40;99.90
7204;DHT22;3643;52.460;13.322;2024-02-21T01:20:48;7.40;99.90
7204;DHT22;3643;52.460;13.322;2024-02-21T01:23:16;7.40;99.90
7204;DHT22;3643;52.460;13.322;2024-02-21T01:25:46;7.40;99.90
7204;DHT22;3643;52.460;13.322;2024-02-21T01:28:14;7.50;99.90
7204;DHT22;3643;52.460;13.322;2024-02-21T01:30:42;7.40;99.90
7204;DHT22;3643;52.460;13.322;2024-02-21T01:33:10;7.50;99.90
7204;DHT22;3643;52.460;13.322;2024-02-21T01:35:38;7.50;99.90
7204;DHT22;3643;52.460;13.322;2024-02-21T01:38:06;7.60;99.90
7204;DHT22;3643;52.460;13.322;2024-02-21T01:40:34;7.50;99.90
7204;DHT22;3643;52.460;13.322;2024-02-21T01:43:15;7.50;99.90
7204;DHT22;3643;52.460;13.322;2024-02-21T01:45:45;7.50;99.90
7204;DHT22;3643;52.460;13.322;2024-02-21T01:48:15;7.50;99.90
7204;DHT22;3643;52.460;13.322;2024-02-21T01:50:44;7.90;99.90
7204;DHT22;3643;52.460;13.322;2024-02-21T01:53:13;7.60;99.90
7204;DHT22;3643;52.460;13.322;2024-02-21T01:55:45;7.60;99.90
7204;DHT22;3643;52.460;13.322;2024-02-21T01:58:15;7.60;99.90
7204;DHT22;3643;52.460;13.322;2024-02-21T02:00:44;7.60;99.90
7204;DHT22;3643;52.460;13.322;2024-02-21T02:03:13;7.60;99.90
7204;DHT22;3643;52.460;13.322;2024-02-21T02:05:44;7.60;99.90
7204;DHT22;3643;52.460;13.322;2024-02-21T02:08:13;7.60;99.90
7204;DHT22;3643;52.460;13.322;2024-02-21T02:10:41;7.60;99.90
7204;DHT22;3643;52.460;13.322;2024-02-21T02:13:10;7.60;99.90
7204;DHT22;3643;52.460;13.322;2024-02-21T02:15:40;8.90;99.90
7204;DHT22;3643;52.460;13.322;2024-02-21T02:18:10;7.50;99.90
7204;DHT22;3643;52.460;13.322;2024-02-21T02:20:38;7.60;99.90
7204;DHT22;3643;52.460;13.322;2024-02-21T02:23:10;7.50;99.90
7204;DHT22;3643;52.460;13.322;2024-02-21T02:25:39;7.50;99.90
7204;DHT22;3643;52.460;13.322;2024-02-21T02:28:08;7.50;99.90
7204;DHT22;3643;52.460;13.322;2024-02-21T02:30:36;7.40;99.90
7204;DHT22;3643;52.460;13.322;2024-02-21T02:33:04;7.40;99.90
7204;DHT22;3643;52.460;13.322;2024-02-21T02:35:33;7.40;99.90
7204;DHT22;3643;52.460;13.322;2024-02-21T02:38:02;7.40;99.90
7204;DHT22;3643;52.460;13.322;2024-02-21T02:40:31;7.40;99.90
7204;DHT22;3643;52.460;13.322;2024-02-21T02:43:00;7.30;99.90
7204;DHT22;3643;52.460;13.322;2024-02-21T02:45:28;7.40;99.90
7204;DHT22;3643;52.460;13.322;2024-02-21T02:47:58;7.30;99.90
7204;DHT22;3643;52.460;13.322;2024-02-21T02:50:27;7.30;99.90
7204;DHT22;3643;52.460;13.322;2024-02-21T02:52:55;7.30;99.90
7204;DHT22;3643;52.460;13.322;2024-02-21T02:55:23;7.30;99.90
7204;DHT22;3643;52.460;13.322;2024-02-21T02:57:52;7.30;99.90
7204;DHT22;3643;52.460;13.322;2024-02-21T03:00:22;7.30;99.90
7204;DHT22;3643;52.460;13.322;2024-02-21T03:02:50;7.30;99.90
7204;DHT22;3643;52.460;13.322;2024-02-21T03:05:19;7.30;99.90
7204;DHT22;3643;52.460;13.322;2024-02-21T03:07:48;7.30;99.90
7204;DHT22;3643;52.460;13.322;2024-02-21T03:10:17;7.30;99.90
7204;DHT22;3643;52.460;13.322;2024-02-21T03:12:46;7.20;99.90
7204;DHT22;3643;52.460;13.322;2024-02-21T03:15:14;7.20;99.90
7204;DHT22;3643;52.460;13.322;2024-02-21T03:17:43;7.20;99.90
7204;DHT22;3643;52.460;13.322;2024-02-21T03:20:12;7.20;99.90
7204;DHT22;3643;52.460;13.322;2024-02-21T03:22:40;7.20;99.90
7204;DHT22;3643;52.460;13.322;2024-02-21T03:25:09;7.20;99.90
7204;DHT22;3643;52.460;13.322;2024-02-21T03:27:38;7.20;99.90
7204;DHT22;3643;52.460;13.322;2024-02-21T03:30:06;7.20;99.90
7204;DHT22;3643;52.460;13.322;2024-02-21T03:32:35;7.20;99.90
7204;DHT22;3643;52.460;13.322;2024-02-21T03:35:05;7.10;99.90
7204;DHT22;3643;52.460;13.322;2024-02-21T03:37:34;7.20;99.90
7204;DHT22;3643;52.460;13.322;2024-02-21T03:40:02;7.10;99.90
7204;DHT22;3643;52.460;13.322;2024-02-21T03:42:32;7.10;99.90
7204;DHT22;3643;52.460;13.322;2024-02-21T03:45:00;7.10;99.90
7204;DHT22;3643;52.460;13.322;2024-02-21T03:47:28;7.10;99.90
7204;DHT22;3643;52.460;13.322;2024-02-21T03:49:56;7.10;99.90
7204;DHT22;3643;52.460;13.322;2024-02-21T03:52:26;7.10;99.90
7204;DHT22;3643;52.460;13.322;2024-02-21T03:54:54;7.00;99.90
7204;DHT22;3643;52.460;13.322;2024-02-21T03:57:22;7.00;99.90
7204;DHT22;3643;52.460;13.322;2024-02-21T03:59:50;7.00;99.90
7204;DHT22;3643;52.460;13.322;2024-02-21T04:02:19;6.90;99.90
7204;DHT22;3643;52.460;13.322;2024-02-21T04:04:47;6.90;99.90
7204;DHT22;3643;52.460;13.322;2024-02-21T04:07:15;6.90;99.90
7204;DHT22;3643;52.460;13.322;2024-02-21T04:09:45;6.90;99.90
7204;DHT22;3643;52.460;13.322;2024-02-21T04:12:13;6.80;99.90
7204;DHT22;3643;52.460;13.322;2024-02-21T04:14:41;6.90;99.90
7204;DHT22;3643;52.460;13.322;2024-02-21T04:17:13;6.80;99.90
7204;DHT22;3643;52.460;13.322;2024-02-21T04:19:41;6.80;99.90
7204;DHT22;3643;52.460;13.322;2024-02-21T04:22:10;6.80;99.90
7204;DHT22;3643;52.460;13.322;2024-02-21T04:24:38;6.70;99.90
7204;DHT22;3643;52.460;13.322;2024-02-21T04:27:07;6.70;99.90
7204;DHT22;3643;52.460;13.322;2024-02-21T04:29:36;6.70;99.90
7204;DHT22;3643;52.460;13.322;2024-02-21T04:32:04;6.70;99.90
7204;DHT22;3643;52.460;13.322;2024-02-21T04:34:33;6.70;99.90
7204;DHT22;3643;52.460;13.322;2024-02-21T04:37:01;6.70;99.90
7204;DHT22;3643;52.460;13.322;2024-02-21T04:39:29;6.70;99.90
7204;DHT22;3643;52.460;13.322;2024-02-21T04:41:57;6.70;99.90
7204;DHT22;3643;52.460;13.322;2024-02-21T04:44:27;6.70;99.90
7204;DHT22;3643;52.460;13.322;2024-02-21T04:46:55;6.70;99.90
7204;DHT22;3643;52.460;13.322;2024-02-21T04:49:24;6.70;99.90
7204;DHT22;3643;52.460;13.322;2024-02-21T04:51:52;6.70;99.90
7204;DHT22;3643;52.460;13.322;2024-02-21T04:54:20;6.60;99.90
7204;DHT22;3643;52.460;13.322;2024-02-21T04:56:48;6.70;99.90
7204;DHT22;3643;52.460;13.322;2024-02-21T04:59:19;6.70;99.90
7204;DHT22;3643;52.460;13.322;2024-02-21T05:01:49;6.70;99.90
7204;DHT22;3643;52.460;13.322;2024-02-21T05:04:17;6.70;99.90
7204;DHT22;3643;52.460;13.322;2024-02-21T05:06:45;6.70;99.90
7204;DHT22;3643;52.460;13.322;2024-02-21T05:09:14;6.70;99.90
7204;DHT22;3643;52.460;13.322;2024-02-21T05:11:42;6.70;99.90
7204;DHT22;3643;52.460;13.322;2024-02-21T05:14:11;6.70;99.90
7204;DHT22;3643;52.460;13.322;2024-02-21T05:16:39;6.70;99.90
7204;DHT22;3643;52.460;13.322;2024-02-21T05:19:09;6.70;99.90
7204;DHT22;3643;52.460;13.322;2024-02-21T05:21:37;6.70;99.90
7204;DHT22;3643;52.460;13.322;2024-02-21T05:24:05;6.80;99.90
7204;DHT22;3643;52.460;13.322;2024-02-21T05:26:34;6.70;99.90
7204;DHT22;3643;52.460;13.322;2024-02-21T05:29:02;6.70;99.90
7204;DHT22;3643;52.460;13.322;2024-02-21T05:31:54;6.70;99.90
7204;DHT22;3643;52.460;13.322;2024-02-21T05:34:24;7.30;99.90
7204;DHT22;3643;52.460;13.322;2024-02-21T05:36:54;6.70;99.90
7204;DHT22;3643;52.460;13.322;2024-02-21T05:39:22;6.70;99.90
7204;DHT22;3643;52.460;13.322;2024-02-21T05:41:50;6.90;99.90
7204;DHT22;3643;52.460;13.322;2024-02-21T05:44:19;6.70;99.90
7204;DHT22;3643;52.460;13.322;2024-02-21T05:46:49;6.70;99.90
7204;DHT22;3643;52.460;13.322;2024-02-21T05:49:17;6.70;99.90
7204;DHT22;3643;52.460;13.322;2024-02-21T05:51:47;6.70;99.90
7204;DHT22;3643;52.460;13.322;2024-02-21T05:54:15;6.70;99.90
7204;DHT22;3643;52.460;13.322;2024-02-21T05:56:47;6.70;99.90
7204;DHT22;3643;52.460;13.322;2024-02-21T05:59:15;6.70;99.90
7204;DHT22;3643;52.460;13.322;2024-02-21T06:01:43;6.70;99.90
7204;DHT22;3643;52.460;13.322;2024-02-21T06:04:11;6.70;99.90
7204;DHT22;3643;52.460;13.322;2024-02-21T06:06:40;6.70;99.90
7204;DHT22;3643;52.460;13.322;2024-02-21T06:09:10;6.70;99.90
7204;DHT22;3643;52.460;13.322;2024-02-21T06:11:38;6.70;99.90
7204;DHT22;3643;52.460;13.322;2024-02-21T06:14:07;5.50;99.90
7204;DHT22;3643;52.460;13.322;2024-02-21T06:16:36;6.70;99.90
7204;DHT22;3643;52.460;13.322;2024-02-21T06:19:04;6.70;99.90
7204;DHT22;3643;52.460;13.322;2024-02-21T06:21:36;6.80;99.90
7204;DHT22;3643;52.460;13.322;2024-02-21T06:24:05;6.80;99.90
7204;DHT22;3643;52.460;13.322;2024-02-21T06:26:34;6.70;99.90
7204;DHT22;3643;52.460;13.322;2024-02-21T06:29:02;6.70;99.90
7204;DHT22;3643;52.460;13.322;2024-02-21T06:31:30;6.80;99.90
7204;DHT22;3643;52.460;13.322;2024-02-21T06:33:59;6.80;99.90
7204;DHT22;3643;52.460;13.322;2024-02-21T06:36:28;6.80;99.90
7204;DHT22;3643;52.460;13.322;2024-02-21T06:38:56;6.80;99.90
7204;DHT22;3643;52.460;13.322;2024-02-21T06:41:25;6.80;99.90
7204;DHT22;3643;52.460;13.322;2024-02-21T06:43:54;6.80;99.90
7204;DHT22;3643;52.460;13.322;2024-02-21T06:46:24;6.90;99.90
7204;DHT22;3643;52.460;13.322;2024-02-21T06:48:52;6.90;99.90
7204;DHT22;3643;52.460;13.322;2024-02-21T06:51:21;6.90;99.90
7204;DHT22;3643;52.460;13.322;2024-02-21T06:53:50;6.90;99.90
7204;DHT22;3643;52.460;13.322;2024-02-21T06:56:18;6.90;99.90
7204;DHT22;3643;52.460;13.322;2024-02-21T06:58:47;6.90;99.90
7204;DHT22;3643;52.460;13.322;2024-02-21T07:01:16;7.10;99.90
7204;DHT22;3643;52.460;13.322;2024-02-21T07:03:45;7.00;99.90
7204;DHT22;3643;52.460;13.322;2024-02-21T07:06:13;7.00;99.90
7204;DHT22;3643;52.460;13.322;2024-02-21T07:08:42;7.00;99.90
7204;DHT22;3643;52.460;13.322;2024-02-21T07:11:11;7.00;99.90
7204;DHT22;3643;52.460;13.322;2024-02-21T07:13:39;7.00;99.90
7204;DHT22;3643;52.460;13.322;2024-02-21T07:16:08;7.00;99.90
7204;DHT22;3643;52.460;13.322;2024-02-21T07:18:37;7.00;99.90
7204;DHT22;3643;52.460;13.322;2024-02-21T07:21:06;7.10;99.90
7204;DHT22;3643;52.460;13.322;2024-02-21T07:23:34;7.10;99.90
7204;DHT22;3643;52.460;13.322;2024-02-21T07:26:04;7.00;99.90
7204;DHT22;3643;52.460;13.322;2024-02-21T07:28:33;7.00;99.90
7204;DHT22;3643;52.460;13.322;2024-02-21T07:31:01;7.00;99.90
7204;DHT22;3643;52.460;13.322;2024-02-21T07:33:30;7.00;99.90
7204;DHT22;3643;52.460;13.322;2024-02-21T07:36:00;7.00;99.90
7204;DHT22;3643;52.460;13.322;2024-02-21T07:38:29;7.00;99.90
7204;DHT22;3643;52.460;13.322;2024-02-21T07:40:57;7.00;99.90
7204;DHT22;3643;52.460;13.322;2024-02-21T07:43:25;7.00;99.90
7204;DHT22;3643;52.460;13.322;2024-02-21T07:45:54;7.00;99.90
7204;DHT22;3643;52.460;13.322;2024-02-21T07:48:22;7.00;99.90
7204;DHT22;3643;52.460;13.322;2024-02-21T07:50:53;7.00;99.90
7204;DHT22;3643;52.460;13.322;2024-02-21T07:53:23;7.10;99.90
7204;DHT22;3643;52.460;13.322;2024-02-21T07:55:51;7.10;99.90
7204;DHT22;3643;52.460;13.322;2024-02-21T07:58:20;7.20;99.90
7204;DHT22;3643;52.460;13.322;2024-02-21T08:00:48;7.10;99.90
7204;DHT22;3643;52.460;13.322;2024-02-21T08:03:16;7.20;99.90
7204;DHT22;3643;52.460;13.322;2024-02-21T08:05:45;7.20;99.90
7204;DHT22;3643;52.460;13.322;2024-02-21T08:08:13;7.20;99.90
7204;DHT22;3643;52.460;13.322;2024-02-21T08:10:46;7.20;99.90
7204;DHT22;3643;52.460;13.322;2024-02-21T08:13:15;7.30;99.90
7204;DHT22;3643;52.460;13.322;2024-02-21T08:15:43;7.10;99.90
7204;DHT22;3643;52.460;13.322;2024-02-21T08:18:11;7.20;99.90
7204;DHT22;3643;52.460;13.322;2024-02-21T08:20:39;7.30;99.90
7204;DHT22;3643;52.460;13.322;2024-02-21T08:23:07;7.30;99.90
7204;DHT22;3643;52.460;13.322;2024-02-21T08:25:36;7.40;99.90
7204;DHT22;3643;52.460;13.322;2024-02-21T08:28:05;7.40;99.90
7204;DHT22;3643;52.460;13.322;2024-02-21T08:30:34;7.70;99.90
7204;DHT22;3643;52.460;13.322;2024-02-21T08:33:03;7.50;99.90
7204;DHT22;3643;52.460;13.322;2024-02-21T08:35:31;7.40;99.90
7204;DHT22;3643;52.460;13.322;2024-02-21T08:38:00;7.40;99.90
7204;DHT22;3643;52.460;13.322;2024-02-21T08:40:28;7.60;99.90
7204;DHT22;3643;52.460;13.322;2024-02-21T08:42:56;7.50;99.90
7204;DHT22;3643;52.460;13.322;2024-02-21T08:45:26;7.50;99.90
7204;DHT22;3643;52.460;13.322;2024-02-21T08:47:54;7.60;99.90
7204;DHT22;3643;52.460;13.322;2024-02-21T08:50:22;7.70;99.90
7204;DHT22;3643;52.460;13.322;2024-02-21T08:52:55;8.00;99.90
7204;DHT22;3643;52.460;13.322;2024-02-21T08:55:24;8.20;99.90
7204;DHT22;3643;52.460;13.322;2024-02-21T08:57:52;8.30;99.90
7204;DHT22;3643;52.460;13.322;2024-02-21T09:00:21;8.40;99.90
7204;DHT22;3643;52.460;13.322;2024-02-21T09:02:56;8.70;99.90
7204;DHT22;3643;52.460;13.322;2024-02-21T09:05:24;8.60;99.90
7204;DHT22;3643;52.460;13.322;2024-02-21T09:07:53;8.40;99.90
7204;DHT22;3643;52.460;13.322;2024-02-21T09:10:21;8.20;99.90
7204;DHT22;3643;52.460;13.322;2024-02-21T09:12:50;8.40;99.90
7204;DHT22;3643;52.460;13.322;2024-02-21T09:15:18;8.30;99.90
7204;DHT22;3643;52.460;13.322;2024-02-21T09:17:46;8.20;99.90
7204;DHT22;3643;52.460;13.322;2024-02-21T09:20:16;8.50;99.90
7204;DHT22;3643;52.460;13.322;2024-02-21T09:22:45;8.60;99.90
7204;DHT22;3643;52.460;13.322;2024-02-21T09:25:13;8.50;99.90
7204;DHT22;3643;52.460;13.322;2024-02-21T09:27:44;8.50;99.90
7204;DHT22;3643;52.460;13.322;2024-02-21T09:30:13;8.80;99.90
7204;DHT22;3643;52.460;13.322;2024-02-21T09:32:41;9.00;99.90
7204;DHT22;3643;52.460;13.322;2024-02-21T09:35:10;9.10;99.90
7204;DHT22;3643;52.460;13.322;2024-02-21T09:37:41;9.20;99.90
7204;DHT22;3643;52.460;13.322;2024-02-21T09:40:10;9.40;99.90
7204;DHT22;3643;52.460;13.322;2024-02-21T09:42:39;9.30;99.90
7204;DHT22;3643;52.460;13.322;2024-02-21T09:45:09;9.30;99.90
7204;DHT22;3643;52.460;13.322;2024-02-21T09:47:56;9.40;99.90
7204;DHT22;3643;52.460;13.322;2024-02-21T09:50:29;9.40;99.90
7204;DHT22;3643;52.460;13.322;2024-02-21T09:53:01;9.50;99.90
7204;DHT22;3643;52.460;13.322;2024-02-21T09:55:31;9.80;99.90
7204;DHT22;3643;52.460;13.322;2024-02-21T09:58:02;10.20;99.90
7204;DHT22;3643;52.460;13.322;2024-02-21T10:00:32;9.90;99.90
7204;DHT22;3643;52.460;13.322;2024-02-21T10:03:04;10.00;99.90
7204;DHT22;3643;52.460;13.322;2024-02-21T10:05:37;10.10;99.90
7204;DHT22;3643;52.460;13.322;2024-02-21T10:08:14;10.20;99.90
7204;DHT22;3643;52.460;13.322;2024-02-21T10:10:43;10.00;99.90
7204;DHT22;3643;52.460;13.322;2024-02-21T10:13:24;9.90;99.90
7204;DHT22;3643;52.460;13.322;2024-02-21T10:16:04;9.90;99.90
7204;DHT22;3643;52.460;13.322;2024-02-21T10:18:33;9.80;99.90
7204;DHT22;3643;52.460;13.322;2024-02-21T10:21:03;9.90;99.90
7204;DHT22;3643;52.460;13.322;2024-02-21T10:23:43;10.00;99.90
7204;DHT22;3643;52.460;13.322;2024-02-21T10:26:12;10.20;99.90
7204;DHT22;3643;52.460;13.322;2024-02-21T10:28:41;10.20;99.90
7204;DHT22;3643;52.460;13.322;2024-02-21T10:31:21;10.20;99.90
7204;DHT22;3643;52.460;13.322;2024-02-21T10:33:54;10.20;99.90
7204;DHT22;3643;52.460;13.322;2024-02-21T10:36:23;10.10;99.90
7204;DHT22;3643;52.460;13.322;2024-02-21T10:38:54;10.10;99.90
7204;DHT22;3643;52.460;13.322;2024-02-21T10:41:23;10.20;99.90
7204;DHT22;3643;52.460;13.322;2024-02-21T10:43:54;10.10;99.90
7204;DHT22;3643;52.460;13.322;2024-02-21T10:46:25;10.20;99.90
7204;DHT22;3643;52.460;13.322;2024-02-21T10:49:04;10.20;99.90
7204;DHT22;3643;52.460;13.322;2024-02-21T10:51:38;10.20;99.90
7204;DHT22;3643;52.460;13.322;2024-02-21T10:54:17;10.20;99.90
7204;DHT22;3643;52.460;13.322;2024-02-21T10:56:52;10.30;99.90
7204;DHT22;3643;52.460;13.322;2024-02-21T10:59:21;10.30;99.90
7204;DHT22;3643;52.460;13.322;2024-02-21T11:01:50;10.40;99.90
7204;DHT22;3643;52.460;13.322;2024-02-21T11:04:25;10.50;99.90
7204;DHT22;3643;52.460;13.322;2024-02-21T11:06:55;10.40;99.90
7204;DHT22;3643;52.460;13.322;2024-02-21T11:09:31;10.20;99.90
7204;DHT22;3643;52.460;13.322;2024-02-21T11:12:02;10.20;99.90
7204;DHT22;3643;52.460;13.322;2024-02-21T11:14:32;10.30;99.90
7204;DHT22;3643;52.460;13.322;2024-02-21T11:17:02;10.40;99.90
7204;DHT22;3643;52.460;13.322;2024-02-21T11:19:31;10.60;99.90
7204;DHT22;3643;52.460;13.322;2024-02-21T11:22:00;10.80;99.90
7204;DHT22;3643;52.460;13.322;2024-02-21T11:24:33;11.00;99.90
7204;DHT22;3643;52.460;13.322;2024-02-21T11:27:12;11.20;99.90
7204;DHT22;3643;52.460;13.322;2024-02-21T11:29:42;11.20;99.90
7204;DHT22;3643;52.460;13.322;2024-02-21T11:32:11;11.20;99.90
7204;DHT22;3643;52.460;13.322;2024-02-21T11:34:40;11.30;99.90
7204;DHT22;3643;52.460;13.322;2024-02-21T11:37:15;11.20;99.90
7204;DHT22;3643;52.460;13.322;2024-02-21T11:39:45;11.30;99.90
7204;DHT22;3643;52.460;13.322;2024-02-21T11:42:13;11.20;99.90
7204;DHT22;3643;52.460;13.322;2024-02-21T11:44:42;11.00;99.90
7204;DHT22;3643;52.460;13.322;2024-02-21T11:47:10;11.10;99.90
7204;DHT22;3643;52.460;13.322;2024-02-21T11:49:43;10.80;99.90
7204;DHT22;3643;52.460;13.322;2024-02-21T11:52:13;11.00;99.90
7204;DHT22;3643;52.460;13.322;2024-02-21T11:54:42;11.30;99.90
7204;DHT22;3643;52.460;13.322;2024-02-21T11:57:12;10.90;99.90
7204;DHT22;3643;52.460;13.322;2024-02-21T11:59:41;10.90;99.90
7204;DHT22;3643;52.460;13.322;2024-02-21T12:02:09;11.00;99.90
7204;DHT22;3643;52.460;13.322;2024-02-21T12:04:38;11.00;99.90
7204;DHT22;3643;52.460;13.322;2024-02-21T12:07:07;11.40;99.90
7204;DHT22;3643;52.460;13.322;2024-02-21T12:09:35;11.20;99.90
7204;DHT22;3643;52.460;13.322;2024-02-21T12:12:05;11.40;99.90
7204;DHT22;3643;52.460;13.322;2024-02-21T12:14:35;11.40;99.90
7204;DHT22;3643;52.460;13.322;2024-02-21T12:17:04;11.50;99.90
7204;DHT22;3643;52.460;13.322;2024-02-21T12:19:33;11.70;99.90
7204;DHT22;3643;52.460;13.322;2024-02-21T12:22:02;11.80;99.90
7204;DHT22;3643;52.460;13.322;2024-02-21T12:24:33;11.80;99.90
7204;DHT22;3643;52.460;13.322;2024-02-21T12:27:03;12.10;99.90
7204;DHT22;3643;52.460;13.322;2024-02-21T12:29:32;11.70;99.90
7204;DHT22;3643;52.460;13.322;2024-02-21T12:32:02;12.20;99.90
7204;DHT22;3643;52.460;13.322;2024-02-21T12:34:31;12.10;99.90
7204;DHT22;3643;52.460;13.322;2024-02-21T12:37:18;12.10;99.90
7204;DHT22;3643;52.460;13.322;2024-02-21T12:39:48;11.80;99.90
7204;DHT22;3643;52.460;13.322;2024-02-21T12:42:16;11.80;99.90
7204;DHT22;3643;52.460;13.322;2024-02-21T12:44:44;11.80;99.90
7204;DHT22;3643;52.460;13.322;2024-02-21T12:47:14;11.90;99.90
7204;DHT22;3643;52.460;13.322;2024-02-21T12:49:42;12.00;99.90
7204;DHT22;3643;52.460;13.322;2024-02-21T12:52:12;12.10;99.90
7204;DHT22;3643;52.460;13.322;2024-02-21T12:54:41;12.30;99.90
7204;DHT22;3643;52.460;13.322;2024-02-21T12:57:10;12.40;99.90
7204;DHT22;3643;52.460;13.322;2024-02-21T12:59:38;12.50;99.90
7204;DHT22;3643;52.460;13.322;2024-02-21T13:02:06;12.50;99.90
7204;DHT22;3643;52.460;13.322;2024-02-21T13:04:37;12.60;99.90
7204;DHT22;3643;52.460;13.322;2024-02-21T13:07:08;12.40;99.90
7204;DHT22;3643;52.460;13.322;2024-02-21T13:09:36;12.40;99.90
7204;DHT22;3643;52.460;13.322;2024-02-21T13:12:05;12.50;99.90
7204;DHT22;3643;52.460;13.322;2024-02-21T13:14:34;12.60;99.90
7204;DHT22;3643;52.460;13.322;2024-02-21T13:17:03;12.50;99.90
7204;DHT22;3643;52.460;13.322;2024-02-21T13:19:32;12.60;99.90
7204;DHT22;3643;52.460;13.322;2024-02-21T13:22:02;12.70;99.90
7204;DHT22;3643;52.460;13.322;2024-02-21T13:24:30;12.70;99.90
7204;DHT22;3643;52.460;13.322;2024-02-21T13:26:58;12.90;99.90
7204;DHT22;3643;52.460;13.322;2024-02-21T13:29:27;13.00;99.90
7204;DHT22;3643;52.460;13.322;2024-02-21T13:31:55;13.10;99.90
7204;DHT22;3643;52.460;13.322;2024-02-21T13:34:23;13.00;99.90
7204;DHT22;3643;52.460;13.322;2024-02-21T13:36:52;13.00;99.90
7204;DHT22;3643;52.460;13.322;2024-02-21T13:39:22;12.60;99.90
7204;DHT22;3643;52.460;13.322;2024-02-21T13:41:50;12.40;99.90
7204;DHT22;3643;52.460;13.322;2024-02-21T13:44:19;12.50;99.90
7204;DHT22;3643;52.460;13.322;2024-02-21T13:46:47;12.30;99.90
7204;DHT22;3643;52.460;13.322;2024-02-21T13:49:16;12.30;99.90
7204;DHT22;3643;52.460;13.322;2024-02-21T13:51:44;12.30;99.90
7204;DHT22;3643;52.460;13.322;2024-02-21T13:54:14;12.20;99.90
7204;DHT22;3643;52.460;13.322;2024-02-21T13:56:47;12.10;99.90
7204;DHT22;3643;52.460;13.322;2024-02-21T13:59:16;12.10;99.90
7204;DHT22;3643;52.460;13.322;2024-02-21T14:01:45;12.10;99.90
7204;DHT22;3643;52.460;13.322;2024-02-21T14:04:13;12.20;99.90
7204;DHT22;3643;52.460;13.322;2024-02-21T14:06:41;12.20;99.90
7204;DHT22;3643;52.460;13.322;2024-02-21T14:09:11;12.20;99.90
7204;DHT22;3643;52.460;13.322;2024-02-21T14:14:08;12.20;99.90
7204;DHT22;3643;52.460;13.322;2024-02-21T14:16:36;12.10;99.90
7204;DHT22;3643;52.460;13.322;2024-02-21T14:19:04;12.00;99.90
7204;DHT22;3643;52.460;13.322;2024-02-21T14:21:33;12.00;99.90
7204;DHT22;3643;52.460;13.322;2024-02-21T14:24:04;12.00;99.90
7204;DHT22;3643;52.460;13.322;2024-02-21T14:26:32;12.00;99.90
7204;DHT22;3643;52.460;13.322;2024-02-21T14:29:00;12.00;99.90
7204;DHT22;3643;52.460;13.322;2024-02-21T14:31:31;11.80;99.90
7204;DHT22;3643;52.460;13.322;2024-02-21T14:33:59;11.90;99.90
7204;DHT22;3643;52.460;13.322;2024-02-21T14:36:29;12.00;99.90
7204;DHT22;3643;52.460;13.322;2024-02-21T14:38:57;11.90;99.90
7204;DHT22;3643;52.460;13.322;2024-02-21T14:41:25;12.00;99.90
7204;DHT22;3643;52.460;13.322;2024-02-21T14:43:54;12.00;99.90
7204;DHT22;3643;52.460;13.322;2024-02-21T14:46:24;11.80;99.90
7204;DHT22;3643;52.460;13.322;2024-02-21T14:48:53;11.80;99.90
7204;DHT22;3643;52.460;13.322;2024-02-21T14:51:21;11.70;99.90
7204;DHT22;3643;52.460;13.322;2024-02-21T14:53:49;11.70;99.90
7204;DHT22;3643;52.460;13.322;2024-02-21T14:56:17;11.80;99.90
7204;DHT22;3643;52.460;13.322;2024-02-21T14:58:45;11.70;99.90
7204;DHT22;3643;52.460;13.322;2024-02-21T15:01:18;11.70;99.90
7204;DHT22;3643;52.460;13.322;2024-02-21T15:03:46;11.70;99.90
7204;DHT22;3643;52.460;13.322;2024-02-21T15:06:15;11.60;99.90
7204;DHT22;3643;52.460;13.322;2024-02-21T15:08:43;11.60;99.90
7204;DHT22;3643;52.460;13.322;2024-02-21T15:11:11;11.80;99.90
7204;DHT22;3643;52.460;13.322;2024-02-21T15:13:39;11.70;99.90
7204;DHT22;3643;52.460;13.322;2024-02-21T15:16:07;11.70;99.90
7204;DHT22;3643;52.460;13.322;2024-02-21T15:18:35;11.70;99.90
7204;DHT22;3643;52.460;13.322;2024-02-21T15:21:05;11.60;99.90
7204;DHT22;3643;52.460;13.322;2024-02-21T15:23:35;11.50;99.90
7204;DHT22;3643;52.460;13.322;2024-02-21T15:26:03;11.40;99.90
7204;DHT22;3643;52.460;13.322;2024-02-21T15:28:32;11.30;99.90
7204;DHT22;3643;52.460;13.322;2024-02-21T15:31:00;11.20;99.90
7204;DHT22;3643;52.460;13.322;2024-02-21T15:33:30;11.10;99.90
7204;DHT22;3643;52.460;13.322;2024-02-21T15:36:00;11.00;99.90
7204;DHT22;3643;52.460;13.322;2024-02-21T15:38:29;10.90;99.90
7204;DHT22;3643;52.460;13.322;2024-02-21T15:40:58;10.70;99.90
7204;DHT22;3643;52.460;13.322;2024-02-21T15:43:26;10.70;99.90
7204;DHT22;3643;52.460;13.322;2024-02-21T15:45:54;10.60;99.90
7204;DHT22;3643;52.460;13.322;2024-02-21T15:48:23;10.50;99.90
7204;DHT22;3643;52.460;13.322;2024-02-21T15:50:52;10.50;99.90
7204;DHT22;3643;52.460;13.322;2024-02-21T15:53:21;10.40;99.90
7204;DHT22;3643;52.460;13.322;2024-02-21T15:55:49;10.50;99.90
7204;DHT22;3643;52.460;13.322;2024-02-21T15:58:18;10.20;99.90
7204;DHT22;3643;52.460;13.322;2024-02-21T16:00:49;10.20;99.90
7204;DHT22;3643;52.460;13.322;2024-02-21T16:03:17;10.10;99.90
7204;DHT22;3643;52.460;13.322;2024-02-21T16:05:45;10.10;99.90
7204;DHT22;3643;52.460;13.322;2024-02-21T16:08:13;9.90;99.90
7204;DHT22;3643;52.460;13.322;2024-02-21T16:10:44;9.90;99.90